sensor_id;sensor_type;location;lat;lon;timestamp;pressure;altitude;pressure_sealevel;temperature;humidity
1832;BME280;1680;48.106;11.708;2023-09-30T00:01:32;96286.63;;;18.07;98.12
1832;BME280;1680;48.106;11.708;2023-09-30T00:03:59;96293.81;;;17.85;100.00
1832;BME280;1680;48.106;11.708;2023-09-30T00:06:27;96288.19;;;17.81;100.00
1832;BME280;1680;48.106;11.708;2023-09-30T00:08:54;96286.97;;;17.67;100.00
1832;BME280;1680;48.106;11.708;2023-09-30T00:11:21;96287.78;;;17.68;100.00
1832;BME280;1680;48.106;11.708;2023-09-30T00:13:48;96295.38;;;17.59;100.00
1832;BME280;1680;48.106;11.708;2023-09-30T00:16:16;96293.78;;;17.58;100.00
1832;BME280;1680;48.106;11.708;2023-09-30T00:18:45;96289.16;;;17.70;100.00
1832;BME280;1680;48.106;11.708;2023-09-30T00:21:12;96294.28;;;17.55;100.00
1832;BME280;1680;48.106;11.708;2023-09-30T00:23:40;96306.16;;;17.53;100.00
1832;BME280;1680;48.106;11.708;2023-09-30T00:26:10;96317.66;;;17.58;100.00
1832;BME280;1680;48.106;11.708;2023-09-30T00:28:39;96312.16;;;17.86;100.00
1832;BME280;1680;48.106;11.708;2023-09-30T00:31:06;96317.94;;;17.83;100.00
1832;BME280;1680;48.106;11.708;2023-09-30T00:33:35;96327.03;;;17.66;100.00
1832;BME280;1680;48.106;11.708;2023-09-30T00:36:07;96308.19;;;17.67;100.00
1832;BME280;1680;48.106;11.708;2023-09-30T00:38:37;96318.91;;;17.72;100.00
1832;BME280;1680;48.106;11.708;2023-09-30T00:41:05;96301.38;;;17.50;100.00
1832;BME280;1680;48.106;11.708;2023-09-30T00:43:33;96317.97;;;17.62;100.00
1832;BME280;1680;48.106;11.708;2023-09-30T00:46:04;96323.63;;;17.70;100.00
1832;BME280;1680;48.106;11.708;2023-09-30T00:48:34;96319.31;;;17.64;100.00
1832;BME280;1680;48.106;11.708;2023-09-30T00:51:01;96319.59;;;17.68;100.00
1832;BME280;1680;48.106;11.708;2023-09-30T00:53:31;96324.38;;;17.66;100.00
1832;BME280;1680;48.106;11.708;2023-09-30T00:55:58;96328.28;;;17.58;100.00
1832;BME280;1680;48.106;11.708;2023-09-30T00:58:26;96321.75;;;17.50;100.00
1832;BME280;1680;48.106;11.708;2023-09-30T01:00:56;96338.97;;;17.47;100.00
1832;BME280;1680;48.106;11.708;2023-09-30T01:03:23;96328.94;;;17.49;100.00
1832;BME280;1680;48.106;11.708;2023-09-30T01:05:51;96312.06;;;17.39;100.00
1832;BME280;1680;48.106;11.708;2023-09-30T01:08:18;96331.78;;;17.43;100.00
1832;BME280;1680;48.106;11.708;2023-09-30T01:10:48;96326.63;;;17.36;100.00
1832;BME280;1680;48.106;11.708;2023-09-30T01:13:16;96322.13;;;17.37;100.00
1832;BME280;1680;48.106;11.708;2023-09-30T01:15:43;96329.53;;;17.35;100.00
1832;BME280;1680;48.106;11.708;2023-09-30T01:18:12;96328.41;;;17.31;100.00
1832;BME280;1680;48.106;11.708;2023-09-30T01:20:39;96320.28;;;17.21;100.00
1832;BME280;1680;48.106;11.708;2023-09-30T01:23:08;96315.38;;;17.29;100.00
1832;BME280;1680;48.106;11.708;2023-09-30T01:25:40;96330.09;;;17.37;100.00
1832;BME280;1680;48.106;11.708;2023-09-30T01:28:09;96327.34;;;17.32;100.00
1832;BME280;1680;48.106;11.708;2023-09-30T01:30:37;96322.88;;;17.32;100.00
1832;BME280;1680;48.106;11.708;2023-09-30T01:33:05;96333.13;;;17.29;100.00
1832;BME280;1680;48.106;11.708;2023-09-30T01:35:33;96319.50;;;17.20;100.00
1832;BME280;1680;48.106;11.708;2023-09-30T01:38:00;96318.09;;;17.18;100.00
1832;BME280;1680;48.106;11.708;2023-09-30T01:40:29;96318.09;;;17.18;100.00
1832;BME280;1680;48.106;11.708;2023-09-30T01:42:56;96325.50;;;17.16;100.00
1832;BME280;1680;48.106;11.708;2023-09-30T01:45:23;96328.22;;;17.21;100.00
1832;BME280;1680;48.106;11.708;2023-09-30T01:47:50;96330.31;;;17.19;100.00
1832;BME280;1680;48.106;11.708;2023-09-30T01:50:18;96332.66;;;17.32;100.00
1832;BME280;1680;48.106;11.708;2023-09-30T01:52:45;96334.84;;;17.18;100.00
1832;BME280;1680;48.106;11.708;2023-09-30T01:55:12;96321.06;;;17.00;100.00
1832;BME280;1680;48.106;11.708;2023-09-30T01:57:40;96322.16;;;17.04;100.00
1832;BME280;1680;48.106;11.708;2023-09-30T02:00:07;96330.66;;;17.06;100.00
1832;BME280;1680;48.106;11.708;2023-09-30T02:02:35;96333.09;;;17.07;100.00
1832;BME280;1680;48.106;11.708;2023-09-30T02:05:03;96326.97;;;17.07;100.00
1832;BME280;1680;48.106;11.708;2023-09-30T02:07:30;96325.94;;;17.08;100.00
1832;BME280;1680;48.106;11.708;2023-09-30T02:09:57;96300.81;;;16.94;100.00
1832;BME280;1680;48.106;11.708;2023-09-30T02:12:26;96329.53;;;17.02;100.00
1832;BME280;1680;48.106;11.708;2023-09-30T02:14:54;96327.88;;;16.96;100.00
1832;BME280;1680;48.106;11.708;2023-09-30T02:17:21;96324.75;;;16.99;100.00
1832;BME280;1680;48.106;11.708;2023-09-30T02:19:49;96325.22;;;16.96;100.00
1832;BME280;1680;48.106;11.708;2023-09-30T02:22:16;96324.22;;;17.02;100.00
1832;BME280;1680;48.106;11.708;2023-09-30T02:24:43;96318.41;;;17.00;100.00
1832;BME280;1680;48.106;11.708;2023-09-30T02:27:10;96313.09;;;17.00;100.00
1832;BME280;1680;48.106;11.708;2023-09-30T02:29:38;96320.72;;;16.96;100.00
1832;BME280;1680;48.106;11.708;2023-09-30T02:32:06;96326.66;;;17.03;100.00
1832;BME280;1680;48.106;11.708;2023-09-30T02:34:34;96331.72;;;17.05;100.00
1832;BME280;1680;48.106;11.708;2023-09-30T02:37:01;96322.41;;;17.02;100.00
1832;BME280;1680;48.106;11.708;2023-09-30T02:39:29;96320.31;;;17.04;100.00
1832;BME280;1680;48.106;11.708;2023-09-30T02:41:56;96332.28;;;17.07;100.00
1832;BME280;1680;48.106;11.708;2023-09-30T02:44:23;96325.63;;;17.04;100.00
1832;BME280;1680;48.106;11.708;2023-09-30T02:46:50;96325.19;;;17.12;100.00
1832;BME280;1680;48.106;11.708;2023-09-30T02:49:20;96329.28;;;17.20;100.00
1832;BME280;1680;48.106;11.708;2023-09-30T02:51:48;96327.09;;;17.17;100.00
1832;BME280;1680;48.106;11.708;2023-09-30T02:54:16;96329.53;;;17.18;100.00
1832;BME280;1680;48.106;11.708;2023-09-30T02:56:43;96332.91;;;17.14;100.00
1832;BME280;1680;48.106;11.708;2023-09-30T02:59:12;96326.50;;;17.10;100.00
1832;BME280;1680;48.106;11.708;2023-09-30T03:01:40;96329.22;;;17.15;100.00
1832;BME280;1680;48.106;11.708;2023-09-30T03:04:07;96321.97;;;17.10;100.00
1832;BME280;1680;48.106;11.708;2023-09-30T03:06:39;96316.94;;;17.09;100.00
1832;BME280;1680;48.106;11.708;2023-09-30T03:09:07;96312.38;;;17.04;100.00
1832;BME280;1680;48.106;11.708;2023-09-30T03:11:37;96321.09;;;17.05;100.00
1832;BME280;1680;48.106;11.708;2023-09-30T03:14:04;96318.16;;;17.01;100.00
1832;BME280;1680;48.106;11.708;2023-09-30T03:16:33;96314.94;;;16.99;100.00
1832;BME280;1680;48.106;11.708;2023-09-30T03:19:04;96301.44;;;16.84;100.00
1832;BME280;1680;48.106;11.708;2023-09-30T03:21:34;96317.19;;;16.91;100.00
1832;BME280;1680;48.106;11.708;2023-09-30T03:24:04;96324.41;;;16.95;100.00
1832;BME280;1680;48.106;11.708;2023-09-30T03:26:33;96329.38;;;16.92;100.00
1832;BME280;1680;48.106;11.708;2023-09-30T03:29:00;96326.66;;;16.87;100.00
1832;BME280;1680;48.106;11.708;2023-09-30T03:31:29;96334.53;;;16.82;100.00
1832;BME280;1680;48.106;11.708;2023-09-30T03:33:56;96328.22;;;16.83;100.00
1832;BME280;1680;48.106;11.708;2023-09-30T03:36:23;96332.94;;;16.81;100.00
1832;BME280;1680;48.106;11.708;2023-09-30T03:38:50;96331.91;;;16.82;100.00
1832;BME280;1680;48.106;11.708;2023-09-30T03:41:21;96332.94;;;16.81;100.00
1832;BME280;1680;48.106;11.708;2023-09-30T03:43:48;96344.88;;;16.83;100.00
1832;BME280;1680;48.106;11.708;2023-09-30T03:46:16;96342.66;;;16.92;100.00
1832;BME280;1680;48.106;11.708;2023-09-30T03:48:43;96346.59;;;16.89;100.00
1832;BME280;1680;48.106;11.708;2023-09-30T03:51:11;96347.38;;;16.90;100.00
1832;BME280;1680;48.106;11.708;2023-09-30T03:53:39;96346.19;;;16.81;100.00
1832;BME280;1680;48.106;11.708;2023-09-30T03:56:06;96328.78;;;16.85;100.00
1832;BME280;1680;48.106;11.708;2023-09-30T03:58:37;96327.13;;;17.00;100.00
1832;BME280;1680;48.106;11.708;2023-09-30T04:01:04;96321.34;;;16.87;100.00
1832;BME280;1680;48.106;11.708;2023-09-30T04:03:32;96328.34;;;16.93;100.00
1832;BME280;1680;48.106;11.708;2023-09-30T04:06:01;96328.50;;;16.86;100.00
1832;BME280;1680;48.106;11.708;2023-09-30T04:08:28;96336.78;;;16.90;100.00
1832;BME280;1680;48.106;11.708;2023-09-30T04:10:58;96332.47;;;16.84;100.00
1832;BME280;1680;48.106;11.708;2023-09-30T04:13:26;96334.84;;;17.02;100.00
1832;BME280;1680;48.106;11.708;2023-09-30T04:15:56;96334.53;;;16.98;100.00
1832;BME280;1680;48.106;11.708;2023-09-30T04:18:24;96338.94;;;16.93;100.00
1832;BME280;1680;48.106;11.708;2023-09-30T04:20:51;96324.56;;;16.89;100.00
1832;BME280;1680;48.106;11.708;2023-09-30T04:23:18;96334.69;;;16.92;100.00
1832;BME280;1680;48.106;11.708;2023-09-30T04:25:47;96338.94;;;16.93;100.00
1832;BME280;1680;48.106;11.708;2023-09-30T04:28:15;96324.41;;;16.95;100.00
1832;BME280;1680;48.106;11.708;2023-09-30T04:30:46;96330.91;;;16.88;100.00
1832;BME280;1680;48.106;11.708;2023-09-30T04:33:16;96330.19;;;16.76;100.00
1832;BME280;1680;48.106;11.708;2023-09-30T04:35:48;96339.75;;;16.77;100.00
1832;BME280;1680;48.106;11.708;2023-09-30T04:38:15;96335.28;;;16.77;100.00
1832;BME280;1680;48.106;11.708;2023-09-30T04:40:43;96335.19;;;16.72;100.00
1832;BME280;1680;48.106;11.708;2023-09-30T04:43:13;96341.22;;;16.68;100.00
1832;BME280;1680;48.106;11.708;2023-09-30T04:45:40;96345.38;;;16.64;100.00
1832;BME280;1680;48.106;11.708;2023-09-30T04:48:07;96345.84;;;16.61;100.00
1832;BME280;1680;48.106;11.708;2023-09-30T04:50:36;96322.31;;;16.48;100.00
1832;BME280;1680;48.106;11.708;2023-09-30T04:53:03;96349.94;;;16.52;100.00
1832;BME280;1680;48.106;11.708;2023-09-30T04:55:30;96353.63;;;16.51;100.00
1832;BME280;1680;48.106;11.708;2023-09-30T04:57:57;96362.19;;;16.42;100.00
1832;BME280;1680;48.106;11.708;2023-09-30T05:00:25;96364.53;;;16.38;100.00
1832;BME280;1680;48.106;11.708;2023-09-30T05:02:55;96360.72;;;16.34;100.00
1832;BME280;1680;48.106;11.708;2023-09-30T05:05:22;96363.72;;;16.26;100.00
1832;BME280;1680;48.106;11.708;2023-09-30T05:07:50;96359.38;;;16.20;100.00
1832;BME280;1680;48.106;11.708;2023-09-30T05:10:17;96348.63;;;16.10;100.00
1832;BME280;1680;48.106;11.708;2023-09-30T05:12:45;96368.66;;;16.06;100.00
1832;BME280;1680;48.106;11.708;2023-09-30T05:15:12;96361.97;;;16.04;100.00
1832;BME280;1680;48.106;11.708;2023-09-30T05:17:41;96366.94;;;16.00;100.00
1832;BME280;1680;48.106;11.708;2023-09-30T05:20:09;96363.72;;;15.98;100.00
1832;BME280;1680;48.106;11.708;2023-09-30T05:22:38;96372.16;;;15.95;100.00
1832;BME280;1680;48.106;11.708;2023-09-30T05:25:07;96373.19;;;15.94;100.00
1832;BME280;1680;48.106;11.708;2023-09-30T05:27:35;96373.38;;;16.04;100.00
1832;BME280;1680;48.106;11.708;2023-09-30T05:30:03;96385.78;;;16.04;100.00
1832;BME280;1680;48.106;11.708;2023-09-30T05:32:31;96383.81;;;16.11;100.00
1832;BME280;1680;48.106;11.708;2023-09-30T05:35:00;96380.00;;;16.18;100.00
1832;BME280;1680;48.106;11.708;2023-09-30T05:37:28;96380.31;;;16.22;100.00
1832;BME280;1680;48.106;11.708;2023-09-30T05:39:56;96374.31;;;16.26;100.00
1832;BME280;1680;48.106;11.708;2023-09-30T05:42:24;96380.56;;;16.20;100.00
1832;BME280;1680;48.106;11.708;2023-09-30T05:44:51;96384.72;;;16.16;100.00
1832;BME280;1680;48.106;11.708;2023-09-30T05:47:19;96363.72;;;15.98;100.00
1832;BME280;1680;48.106;11.708;2023-09-30T05:49:46;96388.97;;;16.17;100.00
1832;BME280;1680;48.106;11.708;2023-09-30T05:52:13;96388.81;;;16.24;100.00
1832;BME280;1680;48.106;11.708;2023-09-30T05:54:40;96393.34;;;16.23;100.00
1832;BME280;1680;48.106;11.708;2023-09-30T05:57:07;96392.31;;;16.13;100.00
1832;BME280;1680;48.106;11.708;2023-09-30T05:59:39;96406.56;;;16.23;100.00
1832;BME280;1680;48.106;11.708;2023-09-30T06:02:06;96406.78;;;16.33;100.00
1832;BME280;1680;48.106;11.708;2023-09-30T06:04:33;96405.28;;;16.37;100.00
1832;BME280;1680;48.106;11.708;2023-09-30T06:07:00;96399.50;;;16.40;100.00
1832;BME280;1680;48.106;11.708;2023-09-30T06:09:27;96403.53;;;16.43;100.00
1832;BME280;1680;48.106;11.708;2023-09-30T06:11:56;96401.75;;;16.48;100.00
1832;BME280;1680;48.106;11.708;2023-09-30T06:14:23;96405.63;;;16.57;100.00
1832;BME280;1680;48.106;11.708;2023-09-30T06:16:54;96402.97;;;16.57;100.00
1832;BME280;1680;48.106;11.708;2023-09-30T06:19:21;96407.22;;;16.58;100.00
1832;BME280;1680;48.106;11.708;2023-09-30T06:21:48;96411.03;;;16.62;100.00
1832;BME280;1680;48.106;11.708;2023-09-30T06:24:16;96408.69;;;16.65;100.00
1832;BME280;1680;48.106;11.708;2023-09-30T06:26:45;96406.94;;;16.71;100.00
1832;BME280;1680;48.106;11.708;2023-09-30T06:29:14;96405.25;;;16.81;100.00
1832;BME280;1680;48.106;11.708;2023-09-30T06:31:41;96399.75;;;16.83;100.00
1832;BME280;1680;48.106;11.708;2023-09-30T06:34:10;96412.28;;;16.87;100.00
1832;BME280;1680;48.106;11.708;2023-09-30T06:36:37;96423.34;;;16.84;100.00
1832;BME280;1680;48.106;11.708;2023-09-30T06:39:06;96431.19;;;16.79;100.00
1832;BME280;1680;48.106;11.708;2023-09-30T06:41:34;96434.41;;;16.81;100.00
1832;BME280;1680;48.106;11.708;2023-09-30T06:44:01;96448.06;;;16.90;100.00
1832;BME280;1680;48.106;11.708;2023-09-30T06:46:28;96453.00;;;16.98;100.00
1832;BME280;1680;48.106;11.708;2023-09-30T06:48:55;96439.41;;;16.94;100.00
1832;BME280;1680;48.106;11.708;2023-09-30T06:51:23;96439.75;;;16.98;100.00
1832;BME280;1680;48.106;11.708;2023-09-30T06:53:52;96440.06;;;17.01;100.00
1832;BME280;1680;48.106;11.708;2023-09-30T06:56:19;96434.28;;;17.21;100.00
1832;BME280;1680;48.106;11.708;2023-09-30T06:58:46;96437.97;;;17.20;100.00
1832;BME280;1680;48.106;11.708;2023-09-30T07:01:15;96448.28;;;17.33;100.00
1832;BME280;1680;48.106;11.708;2023-09-30T07:03:43;96455.13;;;17.45;100.00
1832;BME280;1680;48.106;11.708;2023-09-30T07:06:10;96460.78;;;17.86;100.00
1832;BME280;1680;48.106;11.708;2023-09-30T07:08:39;96460.22;;;17.68;100.00
1832;BME280;1680;48.106;11.708;2023-09-30T07:11:06;96454.63;;;17.64;100.00
1832;BME280;1680;48.106;11.708;2023-09-30T07:13:35;96461.97;;;17.57;100.00
1832;BME280;1680;48.106;11.708;2023-09-30T07:16:02;96462.44;;;17.54;100.00
1832;BME280;1680;48.106;11.708;2023-09-30T07:18:29;96473.50;;;17.68;100.00
1832;BME280;1680;48.106;11.708;2023-09-30T07:20:56;96470.13;;;17.56;100.00
1832;BME280;1680;48.106;11.708;2023-09-30T07:23:23;96472.63;;;17.62;100.00
1832;BME280;1680;48.106;11.708;2023-09-30T07:25:52;96472.41;;;17.64;100.00
1832;BME280;1680;48.106;11.708;2023-09-30T07:28:19;96472.63;;;17.62;100.00
1832;BME280;1680;48.106;11.708;2023-09-30T07:30:46;96472.72;;;17.51;100.00
1832;BME280;1680;48.106;11.708;2023-09-30T07:33:13;96477.69;;;17.48;100.00
1832;BME280;1680;48.106;11.708;2023-09-30T07:35:40;96467.59;;;17.45;100.00
1832;BME280;1680;48.106;11.708;2023-09-30T07:38:08;96466.59;;;17.51;100.00
1832;BME280;1680;48.106;11.708;2023-09-30T07:40:35;96475.91;;;17.53;100.00
1832;BME280;1680;48.106;11.708;2023-09-30T07:43:03;96487.50;;;17.63;100.00
1832;BME280;1680;48.106;11.708;2023-09-30T07:45:30;96507.91;;;17.79;100.00
1832;BME280;1680;48.106;11.708;2023-09-30T07:47:58;96485.28;;;17.55;100.00
1832;BME280;1680;48.106;11.708;2023-09-30T07:50:25;96500.28;;;17.66;100.00
1832;BME280;1680;48.106;11.708;2023-09-30T07:52:52;96496.09;;;17.70;100.00
1832;BME280;1680;48.106;11.708;2023-09-30T07:55:19;96496.25;;;17.80;100.00
1832;BME280;1680;48.106;11.708;2023-09-30T07:57:46;96492.31;;;17.66;100.00
1832;BME280;1680;48.106;11.708;2023-09-30T08:00:15;96467.25;;;17.57;100.00
1832;BME280;1680;48.106;11.708;2023-09-30T08:02:43;96488.47;;;17.57;100.00
1832;BME280;1680;48.106;11.708;2023-09-30T08:05:10;96510.09;;;17.82;100.00
1832;BME280;1680;48.106;11.708;2023-09-30T08:07:37;96519.34;;;17.80;100.00
1832;BME280;1680;48.106;11.708;2023-09-30T08:10:06;96502.38;;;17.64;100.00
1832;BME280;1680;48.106;11.708;2023-09-30T08:12:38;96511.22;;;17.86;100.00
1832;BME280;1680;48.106;11.708;2023-09-30T08:15:07;96516.91;;;17.95;100.00
1832;BME280;1680;48.106;11.708;2023-09-30T08:17:38;96503.03;;;18.09;100.00
1832;BME280;1680;48.106;11.708;2023-09-30T08:20:06;96514.38;;;18.05;100.00
1832;BME280;1680;48.106;11.708;2023-09-30T08:22:34;96511.63;;;18.16;100.00
1832;BME280;1680;48.106;11.708;2023-09-30T08:25:02;96507.94;;;18.17;100.00
1832;BME280;1680;48.106;11.708;2023-09-30T08:27:31;96510.59;;;18.17;100.00
1832;BME280;1680;48.106;11.708;2023-09-30T08:29:58;96509.28;;;18.20;100.00
1832;BME280;1680;48.106;11.708;2023-09-30T08:32:26;96502.22;;;18.25;100.00
1832;BME280;1680;48.106;11.708;2023-09-30T08:34:55;96504.47;;;18.33;100.00
1832;BME280;1680;48.106;11.708;2023-09-30T08:37:22;96496.56;;;18.22;100.00
1832;BME280;1680;48.106;11.708;2023-09-30T08:39:49;96504.94;;;18.30;100.00
1832;BME280;1680;48.106;11.708;2023-09-30T08:42:18;96504.69;;;18.53;100.00
1832;BME280;1680;48.106;11.708;2023-09-30T08:44:46;96523.34;;;18.58;99.81
1832;BME280;1680;48.106;11.708;2023-09-30T08:47:19;96515.31;;;18.53;100.00
1832;BME280;1680;48.106;11.708;2023-09-30T08:49:48;96534.28;;;18.61;100.00
1832;BME280;1680;48.106;11.708;2023-09-30T08:52:17;96510.63;;;18.60;99.77
1832;BME280;1680;48.106;11.708;2023-09-30T08:54:44;96525.56;;;18.66;100.00
1832;BME280;1680;48.106;11.708;2023-09-30T08:57:12;96537.81;;;18.67;100.00
1832;BME280;1680;48.106;11.708;2023-09-30T08:59:41;96539.13;;;18.64;100.00
1832;BME280;1680;48.106;11.708;2023-09-30T09:02:10;96536.16;;;18.61;100.00
1832;BME280;1680;48.106;11.708;2023-09-30T09:04:37;96532.19;;;18.63;99.01
1832;BME280;1680;48.106;11.708;2023-09-30T09:07:04;96527.56;;;18.54;99.06
1832;BME280;1680;48.106;11.708;2023-09-30T09:09:33;96528.03;;;18.51;99.72
1832;BME280;1680;48.106;11.708;2023-09-30T09:12:00;96520.44;;;18.59;100.00
1832;BME280;1680;48.106;11.708;2023-09-30T09:14:37;96517.06;;;18.43;99.87
1832;BME280;1680;48.106;11.708;2023-09-30T09:17:06;96518.53;;;18.34;99.76
1832;BME280;1680;48.106;11.708;2023-09-30T09:19:34;96524.72;;;18.39;99.57
1832;BME280;1680;48.106;11.708;2023-09-30T09:22:03;96508.16;;;18.32;97.03
1832;BME280;1680;48.106;11.708;2023-09-30T09:24:34;96512.44;;;18.33;97.92
1832;BME280;1680;48.106;11.708;2023-09-30T09:27:09;96508.84;;;18.44;96.49
1832;BME280;1680;48.106;11.708;2023-09-30T09:29:37;96517.06;;;18.64;96.74
1832;BME280;1680;48.106;11.708;2023-09-30T09:32:09;96521.59;;;18.90;96.36
1832;BME280;1680;48.106;11.708;2023-09-30T09:34:36;96521.13;;;19.19;94.67
1832;BME280;1680;48.106;11.708;2023-09-30T09:37:14;96521.31;;;19.39;90.95
1832;BME280;1680;48.106;11.708;2023-09-30T09:39:50;96528.31;;;19.50;90.09
1832;BME280;1680;48.106;11.708;2023-09-30T09:42:25;96525.13;;;19.48;88.81
1832;BME280;1680;48.106;11.708;2023-09-30T09:44:55;96537.78;;;19.36;90.02
1832;BME280;1680;48.106;11.708;2023-09-30T09:47:24;96521.38;;;19.44;90.53
1832;BME280;1680;48.106;11.708;2023-09-30T09:49:51;96510.75;;;19.49;90.76
1832;BME280;1680;48.106;11.708;2023-09-30T09:52:20;96500.94;;;19.50;92.01
1832;BME280;1680;48.106;11.708;2023-09-30T09:54:49;96485.72;;;19.81;88.94
1832;BME280;1680;48.106;11.708;2023-09-30T09:57:18;96489.09;;;20.03;86.11
1832;BME280;1680;48.106;11.708;2023-09-30T09:59:45;96466.25;;;20.17;85.09
1832;BME280;1680;48.106;11.708;2023-09-30T10:02:14;96486.56;;;20.33;83.58
1832;BME280;1680;48.106;11.708;2023-09-30T10:04:43;96462.53;;;20.18;83.52
1832;BME280;1680;48.106;11.708;2023-09-30T10:07:14;96475.38;;;20.26;79.47
1832;BME280;1680;48.106;11.708;2023-09-30T10:09:47;96479.56;;;20.12;80.50
1832;BME280;1680;48.106;11.708;2023-09-30T10:12:17;96478.75;;;20.12;78.59
1832;BME280;1680;48.106;11.708;2023-09-30T10:14:46;96472.03;;;19.99;80.74
1832;BME280;1680;48.106;11.708;2023-09-30T10:17:13;96476.88;;;20.07;81.12
1832;BME280;1680;48.106;11.708;2023-09-30T10:20:03;96489.44;;;20.17;82.10
1832;BME280;1680;48.106;11.708;2023-09-30T10:22:31;96495.31;;;20.19;79.86
1832;BME280;1680;48.106;11.708;2023-09-30T10:24:59;96484.91;;;20.17;80.74
1832;BME280;1680;48.106;11.708;2023-09-30T10:27:35;96495.59;;;20.22;81.27
1832;BME280;1680;48.106;11.708;2023-09-30T10:30:09;96493.03;;;20.42;80.00
1832;BME280;1680;48.106;11.708;2023-09-30T10:33:08;96491.44;;;20.41;79.45
1832;BME280;1680;48.106;11.708;2023-09-30T10:35:44;96482.69;;;20.51;79.36
1832;BME280;1680;48.106;11.708;2023-09-30T10:38:37;96480.50;;;20.43;78.78
1832;BME280;1680;48.106;11.708;2023-09-30T10:41:08;96466.38;;;20.47;77.72
1832;BME280;1680;48.106;11.708;2023-09-30T10:43:39;96468.56;;;20.55;78.34
1832;BME280;1680;48.106;11.708;2023-09-30T10:46:32;96472.28;;;20.54;78.35
1832;BME280;1680;48.106;11.708;2023-09-30T10:49:15;96471.19;;;20.50;79.31
1832;BME280;1680;48.106;11.708;2023-09-30T10:51:43;96468.53;;;20.45;79.09
1832;BME280;1680;48.106;11.708;2023-09-30T10:54:12;96470.16;;;20.61;78.76
1832;BME280;1680;48.106;11.708;2023-09-30T10:56:40;96489.06;;;20.54;76.28
1832;BME280;1680;48.106;11.708;2023-09-30T10:59:08;96478.72;;;20.68;75.18
1832;BME280;1680;48.106;11.708;2023-09-30T11:01:35;96481.47;;;20.83;73.28
1832;BME280;1680;48.106;11.708;2023-09-30T11:04:04;96471.81;;;20.77;74.57
1832;BME280;1680;48.106;11.708;2023-09-30T11:06:34;96477.94;;;20.67;74.51
1832;BME280;1680;48.106;11.708;2023-09-30T11:09:01;96486.56;;;20.89;73.28
1832;BME280;1680;48.106;11.708;2023-09-30T11:11:35;96474.53;;;20.92;72.54
1832;BME280;1680;48.106;11.708;2023-09-30T11:14:03;96464.97;;;21.01;73.33
1832;BME280;1680;48.106;11.708;2023-09-30T11:16:41;96447.91;;;21.02;74.50
1832;BME280;1680;48.106;11.708;2023-09-30T11:19:09;96446.03;;;21.17;73.38
1832;BME280;1680;48.106;11.708;2023-09-30T11:21:37;96461.53;;;21.10;73.38
1832;BME280;1680;48.106;11.708;2023-09-30T11:24:06;96455.63;;;21.03;75.43
1832;BME280;1680;48.106;11.708;2023-09-30T11:26:34;96447.34;;;20.95;73.81
1832;BME280;1680;48.106;11.708;2023-09-30T11:29:05;96447.31;;;20.80;73.35
1832;BME280;1680;48.106;11.708;2023-09-30T11:31:33;96460.66;;;20.80;72.96
1832;BME280;1680;48.106;11.708;2023-09-30T11:34:02;96455.34;;;20.95;73.63
1832;BME280;1680;48.106;11.708;2023-09-30T11:36:30;96445.78;;;21.29;72.23
1832;BME280;1680;48.106;11.708;2023-09-30T11:38:58;96474.59;;;21.22;73.38
1832;BME280;1680;48.106;11.708;2023-09-30T11:41:33;96468.72;;;21.25;72.23
1832;BME280;1680;48.106;11.708;2023-09-30T11:44:02;96466.06;;;21.40;72.36
1832;BME280;1680;48.106;11.708;2023-09-30T11:46:33;96459.94;;;21.44;73.85
1832;BME280;1680;48.106;11.708;2023-09-30T11:49:03;96466.88;;;21.30;74.33
1832;BME280;1680;48.106;11.708;2023-09-30T11:51:42;96470.34;;;21.16;74.68
1832;BME280;1680;48.106;11.708;2023-09-30T11:54:11;96460.72;;;21.10;72.76
1832;BME280;1680;48.106;11.708;2023-09-30T11:56:41;96462.03;;;20.92;74.17
1832;BME280;1680;48.106;11.708;2023-09-30T11:59:09;96456.94;;;20.91;73.51
1832;BME280;1680;48.106;11.708;2023-09-30T12:01:36;96461.75;;;20.89;74.16
1832;BME280;1680;48.106;11.708;2023-09-30T12:04:06;96470.88;;;21.23;72.75
1832;BME280;1680;48.106;11.708;2023-09-30T12:06:34;96467.44;;;21.27;72.95
1832;BME280;1680;48.106;11.708;2023-09-30T12:09:03;96456.44;;;21.24;70.83
1832;BME280;1680;48.106;11.708;2023-09-30T12:11:33;96452.47;;;21.46;71.17
1832;BME280;1680;48.106;11.708;2023-09-30T12:14:01;96440.97;;;21.50;69.79
1832;BME280;1680;48.106;11.708;2023-09-30T12:16:28;96425.00;;;21.60;69.62
1832;BME280;1680;48.106;11.708;2023-09-30T12:18:56;96397.22;;;21.47;68.75
1832;BME280;1680;48.106;11.708;2023-09-30T12:21:24;96412.16;;;21.67;66.01
1832;BME280;1680;48.106;11.708;2023-09-30T12:23:51;96410.56;;;21.61;67.65
1832;BME280;1680;48.106;11.708;2023-09-30T12:26:19;96414.28;;;21.50;67.03
1832;BME280;1680;48.106;11.708;2023-09-30T12:28:46;96414.28;;;21.41;67.76
1832;BME280;1680;48.106;11.708;2023-09-30T12:31:13;96417.75;;;21.51;68.56
1832;BME280;1680;48.106;11.708;2023-09-30T12:33:41;96414.84;;;21.48;67.98
1832;BME280;1680;48.106;11.708;2023-09-30T12:36:08;96422.06;;;21.42;68.91
1832;BME280;1680;48.106;11.708;2023-09-30T12:38:38;96410.53;;;21.66;69.13
1832;BME280;1680;48.106;11.708;2023-09-30T12:41:05;96404.94;;;21.68;69.07
1832;BME280;1680;48.106;11.708;2023-09-30T12:43:33;96407.88;;;21.47;69.63
1832;BME280;1680;48.106;11.708;2023-09-30T12:46:00;96415.91;;;21.61;68.41
1832;BME280;1680;48.106;11.708;2023-09-30T12:48:27;96401.47;;;21.72;68.65
1832;BME280;1680;48.106;11.708;2023-09-30T12:50:55;96404.69;;;21.50;68.61
1832;BME280;1680;48.106;11.708;2023-09-30T12:53:22;96399.31;;;21.54;68.44
1832;BME280;1680;48.106;11.708;2023-09-30T12:55:50;96413.75;;;21.53;69.06
1832;BME280;1680;48.106;11.708;2023-09-30T12:58:17;96401.75;;;21.31;70.16
1832;BME280;1680;48.106;11.708;2023-09-30T13:00:44;96409.50;;;21.33;69.69
1832;BME280;1680;48.106;11.708;2023-09-30T13:03:12;96412.69;;;21.30;68.97
1832;BME280;1680;48.106;11.708;2023-09-30T13:05:40;96417.50;;;21.23;69.00
1832;BME280;1680;48.106;11.708;2023-09-30T13:08:08;96421.22;;;21.22;67.87
1832;BME280;1680;48.106;11.708;2023-09-30T13:10:37;96416.16;;;21.15;67.37